Time;durP1;ratioP1;P1;durP2;ratioP2;P2;SDS_P1;SDS_P2;PMS_P1;PMS_P2;Temp;Humidity;BMP_temperature;BMP_pressure;BME280_temperature;BME280_humidity;BME280_pressure;Samples;Min_cycle;Max_cycle;Signal;HPM_P1;HPM_P2
2021/05/19 00:00:05;;;;;;;15.27;6.90;;;8.50;99.90;;;;;;5071197;28;20242;-66
2021/05/19 00:02:33;;;;;;;11.90;6.60;;;8.40;99.90;;;;;;5079125;28;20215;-66
2021/05/19 00:05:01;;;;;;;12.87;6.63;;;8.40;99.90;;;;;;5072812;28;20274;-66
2021/05/19 00:07:29;;;;;;;10.87;6.63;;;8.40;99.90;;;;;;5072104;28;20295;-66
2021/05/19 00:09:57;;;;;;;14.93;6.33;;;8.30;99.90;;;;;;5078635;28;20280;-66
2021/05/19 00:12:26;;;;;;;9.17;5.80;;;8.30;99.90;;;;;;5077858;28;20231;-66
2021/05/19 00:14:54;;;;;;;13.43;5.90;;;8.30;99.90;;;;;;5070876;28;20218;-66
2021/05/19 00:17:21;;;;;;;15.30;6.27;;;8.30;99.90;;;;;;5079083;28;20291;-66
2021/05/19 00:19:49;;;;;;;16.73;6.47;;;8.20;99.90;;;;;;5069484;28;20598;-66
2021/05/19 00:22:17;;;;;;;8.47;5.67;;;8.20;99.90;;;;;;5069308;28;20651;-66
2021/05/19 00:24:45;;;;;;;13.20;5.87;;;8.20;99.90;;;;;;5068571;28;20192;-66
2021/05/19 00:27:13;;;;;;;14.57;5.70;;;8.20;99.90;;;;;;5070285;28;20192;-66
2021/05/19 00:29:42;;;;;;;13.83;5.80;;;8.10;99.90;;;;;;5068453;28;20246;-66
2021/05/19 00:32:09;;;;;;;10.50;4.93;;;8.10;99.90;;;;;;5070240;28;20306;-66
2021/05/19 00:34:38;;;;;;;9.10;5.50;;;8.10;99.90;;;;;;5071364;28;20261;-66
2021/05/19 00:37:06;;;;;;;13.07;5.17;;;8.10;99.90;;;;;;5069328;28;20192;-66
2021/05/19 00:39:34;;;;;;;9.17;5.37;;;8.10;99.90;;;;;;5074780;28;20277;-66
2021/05/19 00:42:03;;;;;;;13.23;5.90;;;8.10;99.90;;;;;;5068443;28;20196;-66
2021/05/19 00:44:30;;;;;;;13.50;5.60;;;8.10;99.90;;;;;;5071186;28;20287;-66
2021/05/19 00:46:59;;;;;;;9.87;5.33;;;8.10;99.90;;;;;;5072088;28;20199;-66
2021/05/19 00:49:27;;;;;;;12.13;5.27;;;8.10;99.90;;;;;;5076853;28;20887;-66
2021/05/19 00:51:56;;;;;;;11.13;5.03;;;8.10;99.90;;;;;;5079296;28;20199;-66
2021/05/19 00:54:24;;;;;;;7.37;4.80;;;8.10;99.90;;;;;;5074293;28;20192;-66
2021/05/19 00:56:53;;;;;;;13.93;4.93;;;8.10;99.90;;;;;;5068753;28;20227;-66
2021/05/19 00:59:21;;;;;;;11.87;4.60;;;8.00;99.90;;;;;;5068743;28;20794;-66
2021/05/19 01:01:49;;;;;;;13.40;5.43;;;8.00;99.90;;;;;;5069352;28;20192;-66
2021/05/19 01:04:18;;;;;;;10.10;4.90;;;8.00;99.90;;;;;;5069528;28;20204;-66
2021/05/19 01:06:50;;;;;;;9.80;5.20;;;8.00;99.90;;;;;;5070556;28;20292;-66
2021/05/19 01:09:36;;;;;;;10.80;4.93;;;8.00;99.90;;;;;;5074889;28;20246;-66
2021/05/19 01:12:04;;;;;;;16.37;4.70;;;8.00;99.90;;;;;;5068536;28;20670;-66
2021/05/19 01:14:32;;;;;;;7.60;4.70;;;8.00;99.90;;;;;;5074638;28;20663;-66
2021/05/19 01:17:00;;;;;;;17.17;4.80;;;8.00;99.90;;;;;;5068127;28;20245;-66
2021/05/19 01:19:35;;;;;;;12.13;5.40;;;8.00;99.90;;;;;;5065135;28;20253;-65
2021/05/19 01:22:07;;;;;;;11.63;5.17;;;8.00;99.90;;;;;;5071658;28;20231;-66
2021/05/19 01:24:36;;;;;;;14.40;4.90;;;8.10;99.90;;;;;;5084312;28;20219;-65
2021/05/19 01:27:06;;;;;;;19.53;5.10;;;8.10;99.90;;;;;;5069444;28;20192;-66
2021/05/19 01:29:34;;;;;;;11.70;4.70;;;8.10;99.90;;;;;;5069110;28;20640;-66
2021/05/19 01:32:01;;;;;;;13.27;5.10;;;8.10;99.90;;;;;;5072400;28;20208;-66
2021/05/19 01:34:29;;;;;;;17.50;5.00;;;8.00;99.90;;;;;;5071984;28;20204;-66
2021/05/19 01:36:57;;;;;;;12.83;5.60;;;8.00;99.90;;;;;;5070924;28;20279;-66
2021/05/19 01:39:26;;;;;;;17.27;5.50;;;8.00;99.90;;;;;;5070044;28;20184;-66
2021/05/19 01:41:54;;;;;;;21.40;5.57;;;8.00;99.90;;;;;;5070305;28;20196;-66
2021/05/19 01:44:23;;;;;;;23.33;6.07;;;8.00;99.90;;;;;;5069110;28;20536;-66
2021/05/19 01:46:52;;;;;;;17.03;5.30;;;8.00;99.90;;;;;;5080232;28;20231;-65
2021/05/19 01:49:22;;;;;;;14.73;6.10;;;8.00;99.90;;;;;;5096225;27;20294;-65
2021/05/19 01:51:50;;;;;;;16.20;5.07;;;8.00;99.90;;;;;;5068544;28;20212;-65
2021/05/19 01:54:20;;;;;;;13.27;5.67;;;8.00;99.90;;;;;;5068740;28;20230;-66
2021/05/19 01:56:49;;;;;;;23.17;5.40;;;8.00;99.90;;;;;;5073631;28;20199;-65
2021/05/19 01:59:17;;;;;;;19.13;5.70;;;8.10;99.90;;;;;;5069001;28;20624;-66
2021/05/19 02:01:45;;;;;;;13.47;5.70;;;8.00;99.90;;;;;;5075999;28;20223;-66
2021/05/19 02:04:16;;;;;;;16.00;5.67;;;8.00;99.90;;;;;;5067181;28;20381;-66
2021/05/19 02:06:46;;;;;;;18.60;6.40;;;8.00;99.90;;;;;;5073027;28;20219;-66
2021/05/19 02:09:15;;;;;;;11.97;5.77;;;8.00;99.90;;;;;;5073172;28;21160;-66
2021/05/19 02:11:43;;;;;;;11.40;5.97;;;7.90;99.90;;;;;;5068906;28;20248;-66
2021/05/19 02:14:12;;;;;;;13.93;5.97;;;7.90;99.90;;;;;;5067996;28;20276;-66
2021/05/19 02:16:40;;;;;;;12.17;5.70;;;7.90;99.90;;;;;;5068163;28;20856;-66
2021/05/19 02:19:09;;;;;;;22.13;5.90;;;7.80;99.90;;;;;;5067459;28;20280;-66
2021/05/19 02:21:40;;;;;;;19.20;5.87;;;7.90;99.90;;;;;;5068751;28;20208;-66
2021/05/19 02:24:09;;;;;;;18.33;6.53;;;7.90;99.90;;;;;;5066838;28;20280;-65
2021/05/19 02:26:37;;;;;;;13.33;5.53;;;7.90;99.90;;;;;;5068962;28;20223;-66
2021/05/19 02:29:06;;;;;;;13.53;5.83;;;7.90;99.90;;;;;;5065314;28;20196;-65
2021/05/19 02:31:36;;;;;;;22.83;6.40;;;7.90;99.90;;;;;;5067627;28;20223;-65
2021/05/19 02:34:04;;;;;;;14.03;5.50;;;7.90;99.90;;;;;;5077451;28;20219;-65
2021/05/19 02:36:32;;;;;;;17.37;5.60;;;7.90;99.90;;;;;;5071138;28;20216;-66
2021/05/19 02:39:01;;;;;;;16.73;5.80;;;7.90;99.90;;;;;;5068597;28;20200;-66
2021/05/19 02:41:28;;;;;;;16.93;5.50;;;7.80;99.90;;;;;;5070970;28;20726;-65
2021/05/19 02:43:56;;;;;;;13.27;5.40;;;7.80;99.90;;;;;;5071403;28;20194;-66
2021/05/19 02:46:25;;;;;;;14.40;5.57;;;7.80;99.90;;;;;;5065778;28;20294;-65
2021/05/19 02:49:01;;;;;;;15.53;5.97;;;7.80;99.90;;;;;;5067525;28;20566;-66
2021/05/19 02:51:30;;;;;;;9.97;5.10;;;7.80;99.90;;;;;;5068730;28;20204;-66
2021/05/19 02:53:58;;;;;;;12.17;5.17;;;7.80;99.90;;;;;;5069471;28;20542;-66
2021/05/19 02:56:26;;;;;;;12.83;5.57;;;7.80;99.90;;;;;;5066722;28;20242;-65
2021/05/19 02:58:55;;;;;;;16.27;6.40;;;7.70;99.90;;;;;;5068997;28;20200;-65
2021/05/19 03:01:23;;;;;;;12.70;5.50;;;7.70;99.90;;;;;;5065601;28;20196;-65
2021/05/19 03:03:51;;;;;;;13.73;5.80;;;7.70;99.90;;;;;;5072460;28;20730;-66
2021/05/19 03:06:20;;;;;;;17.37;6.23;;;7.60;99.90;;;;;;5074695;28;20215;-65
2021/05/19 03:08:47;;;;;;;17.37;5.27;;;7.60;99.90;;;;;;5076302;28;20327;-65
2021/05/19 03:11:15;;;;;;;16.70;5.83;;;7.60;99.90;;;;;;5068552;28;20223;-65
2021/05/19 03:13:43;;;;;;;9.97;5.27;;;7.60;99.90;;;;;;5077252;28;20298;-66
2021/05/19 03:16:12;;;;;;;18.73;5.83;;;7.50;99.90;;;;;;5063410;28;20245;-66
2021/05/19 03:18:40;;;;;;;15.10;5.53;;;7.50;99.90;;;;;;5072926;28;20229;-65
2021/05/19 03:21:08;;;;;;;16.63;5.57;;;7.50;99.90;;;;;;5068482;28;20275;-66
2021/05/19 03:23:37;;;;;;;19.07;6.20;;;7.40;99.90;;;;;;5071239;28;20212;-66
2021/05/19 03:26:04;;;;;;;14.60;5.60;;;7.40;99.90;;;;;;5072002;28;20219;-65
2021/05/19 03:28:33;;;;;;;15.07;5.50;;;7.40;99.90;;;;;;5066297;28;20285;-65
2021/05/19 03:31:01;;;;;;;15.13;5.83;;;7.40;99.90;;;;;;5066249;28;20298;-66
2021/05/19 03:33:30;;;;;;;19.40;5.57;;;7.40;99.90;;;;;;5069123;28;20212;-65
2021/05/19 03:35:58;;;;;;;17.77;6.00;;;7.40;99.90;;;;;;5072423;28;20191;-66
2021/05/19 03:38:26;;;;;;;12.37;5.93;;;7.40;99.90;;;;;;5075476;28;20231;-66
2021/05/19 03:40:55;;;;;;;16.57;6.40;;;7.40;99.90;;;;;;5072664;28;20693;-65
2021/05/19 03:43:22;;;;;;;11.50;5.93;;;7.50;99.90;;;;;;5070908;28;20656;-66
2021/05/19 03:45:50;;;;;;;16.13;6.40;;;7.60;99.90;;;;;;5073979;28;20191;-66
2021/05/19 03:48:18;;;;;;;17.70;6.17;;;7.70;99.90;;;;;;5085745;28;20250;-65
2021/05/19 03:50:47;;;;;;;14.33;6.47;;;7.80;99.90;;;;;;5069360;28;20729;-66
2021/05/19 03:53:15;;;;;;;8.80;5.70;;;7.80;99.90;;;;;;5071886;28;20291;-65
2021/05/19 03:55:44;;;;;;;15.60;6.13;;;7.90;99.90;;;;;;5072709;28;20192;-66
2021/05/19 03:58:13;;;;;;;18.03;6.37;;;7.90;99.90;;;;;;5067777;28;20207;-65
2021/05/19 04:00:42;;;;;;;12.17;5.90;;;8.00;99.90;;;;;;5073361;28;20223;-66
2021/05/19 04:03:10;;;;;;;14.40;5.83;;;8.00;99.90;;;;;;5070278;28;20184;-65
2021/05/19 04:05:39;;;;;;;21.07;5.47;;;8.10;99.90;;;;;;5071230;28;20654;-65
2021/05/19 04:08:08;;;;;;;16.67;5.93;;;8.20;99.90;;;;;;5074920;28;20781;-66
2021/05/19 04:10:36;;;;;;;9.93;5.37;;;8.20;99.90;;;;;;5069144;28;20234;-65
2021/05/19 04:13:05;;;;;;;10.07;5.33;;;8.30;99.90;;;;;;5067899;28;20299;-66
2021/05/19 04:15:35;;;;;;;13.73;5.33;;;8.30;99.90;;;;;;5070137;28;20192;-65
2021/05/19 04:18:05;;;;;;;16.90;5.67;;;8.30;99.90;;;;;;5068064;28;20204;-66
2021/05/19 04:20:38;;;;;;;14.97;5.73;;;8.30;99.90;;;;;;5067863;28;20197;-65
2021/05/19 04:23:06;;;;;;;9.23;5.67;;;8.40;99.90;;;;;;5070186;28;20191;-65
2021/05/19 04:25:35;;;;;;;8.97;5.40;;;8.40;99.90;;;;;;5076526;28;20258;-65
2021/05/19 04:28:04;;;;;;;16.77;5.53;;;8.40;99.90;;;;;;5072798;28;20223;-66
2021/05/19 04:30:32;;;;;;;17.80;6.17;;;8.50;99.90;;;;;;5075150;28;20195;-66
2021/05/19 04:33:01;;;;;;;15.10;5.00;;;8.50;99.90;;;;;;5070508;28;20272;-65
2021/05/19 04:35:29;;;;;;;14.87;5.10;;;8.50;99.90;;;;;;5070200;28;20204;-66
2021/05/19 04:38:01;;;;;;;15.00;5.00;;;8.60;99.90;;;;;;5072568;28;20194;-66
2021/05/19 04:40:29;;;;;;;12.77;5.63;;;8.60;99.90;;;;;;5069773;28;20704;-65
2021/05/19 04:42:57;;;;;;;15.57;5.67;;;8.60;99.90;;;;;;5066998;28;20271;-66
2021/05/19 04:45:26;;;;;;;15.60;5.70;;;8.60;99.90;;;;;;5070781;28;20608;-65
2021/05/19 04:47:54;;;;;;;15.50;5.43;;;8.60;99.90;;;;;;5069238;28;21181;-65
2021/05/19 04:50:23;;;;;;;15.80;5.47;;;8.60;99.90;;;;;;5068879;28;20208;-65
2021/05/19 04:52:50;;;;;;;10.37;5.20;;;8.70;99.90;;;;;;5067993;28;20325;-66
2021/05/19 04:55:18;;;;;;;17.93;5.70;;;8.70;99.90;;;;;;5069114;28;20189;-66
2021/05/19 04:57:46;;;;;;;11.67;5.50;;;8.70;99.90;;;;;;5074872;28;20615;-66
2021/05/19 05:00:15;;;;;;;13.87;5.10;;;8.70;99.90;;;;;;5069539;28;20192;-66
2021/05/19 05:02:43;;;;;;;17.20;5.40;;;8.80;99.90;;;;;;5073184;28;20206;-65
2021/05/19 05:05:12;;;;;;;17.40;5.20;;;8.70;99.90;;;;;;5073025;28;20857;-65
2021/05/19 05:07:41;;;;;;;14.23;5.23;;;8.70;99.90;;;;;;5074447;28;20200;-66
2021/05/19 05:10:11;;;;;;;11.83;4.83;;;8.70;99.90;;;;;;5068507;28;20788;-66
2021/05/19 05:12:39;;;;;;;19.93;5.23;;;8.70;99.90;;;;;;5069844;28;20612;-65
2021/05/19 05:15:11;;;;;;;9.90;4.43;;;8.70;99.90;;;;;;5078083;28;20184;-65
2021/05/19 05:17:38;;;;;;;17.00;5.53;;;8.70;99.90;;;;;;5072391;28;20192;-65
2021/05/19 05:20:09;;;;;;;14.00;5.07;;;8.80;99.90;;;;;;5084828;28;20180;-66
2021/05/19 05:22:38;;;;;;;13.70;4.53;;;8.80;99.90;;;;;;5071124;28;20283;-65
2021/05/19 05:25:08;;;;;;;10.73;4.93;;;8.90;99.90;;;;;;5067143;28;20728;-65
2021/05/19 05:27:37;;;;;;;8.77;4.53;;;9.00;99.90;;;;;;5071457;28;20201;-65
2021/05/19 05:30:06;;;;;;;9.70;4.37;;;9.10;99.90;;;;;;5067930;28;20200;-66
2021/05/19 05:32:34;;;;;;;15.07;4.43;;;9.20;99.90;;;;;;5067665;28;20219;-65
2021/05/19 05:35:03;;;;;;;15.23;5.20;;;9.30;99.90;;;;;;5067498;28;20231;-65
2021/05/19 05:37:31;;;;;;;12.07;4.33;;;9.60;99.90;;;;;;5068438;28;20187;-66
2021/05/19 05:39:59;;;;;;;10.33;4.20;;;9.80;99.90;;;;;;5067518;28;20184;-66
2021/05/19 05:42:33;;;;;;;11.83;4.50;;;9.90;99.90;;;;;;5068079;28;20659;-65
2021/05/19 05:45:01;;;;;;;12.70;4.47;;;10.20;99.90;;;;;;5067907;28;20663;-66
2021/05/19 05:47:29;;;;;;;9.03;3.73;;;10.40;99.90;;;;;;5068699;28;20193;-65
2021/05/19 05:49:58;;;;;;;11.83;3.87;;;10.40;99.90;;;;;;5065964;28;20191;-65
2021/05/19 05:52:26;;;;;;;10.87;4.27;;;10.30;99.90;;;;;;5069372;28;20210;-65
2021/05/19 05:54:54;;;;;;;18.03;4.13;;;10.50;99.90;;;;;;5073622;28;20204;-65
2021/05/19 05:57:22;;;;;;;8.90;3.97;;;10.50;99.90;;;;;;5069146;28;20227;-65
2021/05/19 05:59:52;;;;;;;11.73;4.13;;;10.50;99.90;;;;;;5066086;28;20199;-65
2021/05/19 06:02:19;;;;;;;6.67;3.93;;;10.70;99.90;;;;;;5065809;28;20268;-65
2021/05/19 06:04:47;;;;;;;11.47;4.53;;;11.00;99.90;;;;;;5065249;28;20192;-65
2021/05/19 06:07:15;;;;;;;10.63;3.90;;;11.20;99.90;;;;;;5065876;28;20193;-65
2021/05/19 06:09:50;;;;;;;8.93;3.57;;;11.40;99.90;;;;;;5067793;28;20238;-65
2021/05/19 06:12:19;;;;;;;11.53;4.00;;;11.50;99.90;;;;;;5064175;28;20196;-65
2021/05/19 06:14:50;;;;;;;9.53;3.53;;;11.70;99.90;;;;;;5069947;28;20200;-65
2021/05/19 06:17:18;;;;;;;10.73;3.33;;;11.80;99.90;;;;;;5068532;28;20278;-65
2021/05/19 06:19:47;;;;;;;12.50;3.50;;;11.70;99.90;;;;;;5066935;28;20200;-65
2021/05/19 06:22:15;;;;;;;13.87;3.93;;;11.80;99.90;;;;;;5069760;28;20291;-65
2021/05/19 06:24:43;;;;;;;7.60;3.80;;;11.70;99.90;;;;;;5069887;28;20192;-65
2021/05/19 06:27:11;;;;;;;8.60;3.20;;;11.80;99.90;;;;;;5070819;28;20283;-65
2021/05/19 06:29:41;;;;;;;11.10;3.27;;;11.70;99.90;;;;;;5066903;28;20333;-65
2021/05/19 06:32:09;;;;;;;7.57;2.97;;;11.60;99.90;;;;;;5066132;28;20199;-65
2021/05/19 06:34:38;;;;;;;6.97;2.93;;;11.70;99.90;;;;;;5069747;28;20619;-65
2021/05/19 06:37:09;;;;;;;7.13;3.07;;;11.70;99.90;;;;;;5070868;28;20655;-65
2021/05/19 06:39:37;;;;;;;13.57;3.60;;;11.60;99.90;;;;;;5082046;28;20199;-65
2021/05/19 06:42:05;;;;;;;8.27;2.87;;;11.70;99.90;;;;;;5065323;28;20558;-65
2021/05/19 06:44:33;;;;;;;7.73;3.30;;;11.80;99.90;;;;;;5067202;28;20183;-66
2021/05/19 06:47:01;;;;;;;6.13;3.13;;;12.20;99.90;;;;;;5068729;28;20650;-65
2021/05/19 06:49:28;;;;;;;7.57;2.93;;;12.50;99.90;;;;;;5071980;28;20203;-66
2021/05/19 06:51:56;;;;;;;8.87;3.03;;;12.80;99.90;;;;;;5081632;28;20295;-66
2021/05/19 06:54:24;;;;;;;9.40;3.13;;;12.90;99.90;;;;;;5068697;28;20268;-66
2021/05/19 06:56:54;;;;;;;10.43;3.07;;;12.90;99.90;;;;;;5075472;28;20191;-65
2021/05/19 06:59:22;;;;;;;8.43;2.63;;;12.90;99.90;;;;;;5068589;28;20250;-65
2021/05/19 07:01:50;;;;;;;5.67;2.80;;;13.00;99.90;;;;;;5069544;28;20357;-66
2021/05/19 07:04:20;;;;;;;5.60;2.57;;;13.00;99.90;;;;;;5073195;28;20837;-66
2021/05/19 07:06:49;;;;;;;9.73;2.97;;;12.90;99.90;;;;;;5080205;28;20259;-66
2021/05/19 07:09:16;;;;;;;7.37;2.73;;;12.60;99.90;;;;;;5078099;28;20740;-65
2021/05/19 07:11:44;;;;;;;7.43;3.40;;;12.40;99.90;;;;;;5073669;28;20192;-66
2021/05/19 07:14:16;;;;;;;7.90;3.73;;;12.20;99.90;;;;;;5073300;28;20211;-66
2021/05/19 07:16:50;;;;;;;8.23;3.20;;;12.20;99.90;;;;;;5078297;28;20202;-65
2021/05/19 07:19:18;;;;;;;7.40;3.30;;;12.40;99.90;;;;;;5072124;28;20192;-65
2021/05/19 07:21:46;;;;;;;9.37;2.90;;;12.40;99.90;;;;;;5070640;28;20191;-65
2021/05/19 07:24:15;;;;;;;10.73;3.10;;;12.60;99.90;;;;;;5064172;28;20191;-66
2021/05/19 07:26:45;;;;;;;5.97;2.90;;;12.80;99.90;;;;;;5068031;28;20188;-66
2021/05/19 07:29:15;;;;;;;3.83;2.53;;;13.10;99.90;;;;;;5061708;28;20291;-66
2021/05/19 07:31:45;;;;;;;4.07;2.73;;;13.40;99.90;;;;;;5069822;28;20287;-65
2021/05/19 07:34:14;;;;;;;7.47;2.70;;;13.40;99.90;;;;;;5068248;28;20620;-65
2021/05/19 07:36:42;;;;;;;4.63;2.00;;;13.40;99.90;;;;;;5068828;28;20229;-65
2021/05/19 07:39:10;;;;;;;5.03;2.50;;;13.50;99.90;;;;;;5080174;28;20196;-65
2021/05/19 07:41:40;;;;;;;4.07;2.23;;;13.40;99.90;;;;;;5067113;28;20219;-65
2021/05/19 07:44:08;;;;;;;2.97;2.10;;;13.40;99.90;;;;;;5062742;28;20664;-65
2021/05/19 07:46:37;;;;;;;5.27;2.17;;;13.50;99.90;;;;;;5069674;28;20219;-66
2021/05/19 07:49:04;;;;;;;4.43;2.07;;;13.40;99.90;;;;;;5068159;28;20200;-66
2021/05/19 07:51:31;;;;;;;9.23;2.37;;;13.40;99.90;;;;;;5066551;28;20215;-66
2021/05/19 07:53:57;;;;;;;2.53;1.90;;;13.30;99.90;;;;;;5076417;28;20218;-66
2021/05/19 07:56:33;;;;;;;7.67;2.50;;;13.20;99.90;;;;;;5082977;28;20207;-66
2021/05/19 07:59:05;;;;;;;5.87;2.30;;;13.20;99.90;;;;;;5066664;28;20200;-66
2021/05/19 08:01:54;;;;;;;10.43;3.30;;;13.20;99.90;;;;;;5063390;28;20200;-65
2021/05/19 08:04:21;;;;;;;5.40;2.80;;;13.20;99.90;;;;;;5067607;28;20188;-66
2021/05/19 08:06:48;;;;;;;4.43;2.10;;;13.30;99.90;;;;;;5067869;28;20196;-66
2021/05/19 08:09:14;;;;;;;10.77;2.80;;;13.50;99.90;;;;;;5069075;28;20199;-66
2021/05/19 08:11:41;;;;;;;5.37;2.40;;;13.50;99.90;;;;;;5067224;28;20195;-66
2021/05/19 08:14:11;;;;;;;6.07;2.67;;;13.70;99.90;;;;;;5073167;28;20316;-66
2021/05/19 08:16:38;;;;;;;5.87;2.30;;;14.00;99.90;;;;;;5086476;28;20649;-66
2021/05/19 08:19:04;;;;;;;8.13;2.70;;;14.20;99.90;;;;;;5070869;28;20207;-66
2021/05/19 08:21:33;;;;;;;6.00;2.53;;;14.30;99.90;;;;;;5070204;28;20193;-66
2021/05/19 08:24:01;;;;;;;6.47;2.27;;;14.30;99.90;;;;;;5071217;28;20220;-66
2021/05/19 08:26:29;;;;;;;4.33;2.60;;;14.10;99.90;;;;;;5073533;28;20187;-66
2021/05/19 08:28:57;;;;;;;2.93;2.30;;;14.00;99.90;;;;;;5070498;28;20266;-66
2021/05/19 08:31:26;;;;;;;3.27;2.30;;;13.80;99.90;;;;;;5071222;28;20264;-66
2021/05/19 08:34:10;;;;;;;4.77;2.00;;;13.70;99.90;;;;;;5073286;28;20228;-66
2021/05/19 08:36:38;;;;;;;2.20;1.60;;;13.60;99.90;;;;;;5079951;28;20767;-65
2021/05/19 08:39:06;;;;;;;2.03;1.80;;;13.50;99.90;;;;;;5076842;28;20224;-65
2021/05/19 08:41:34;;;;;;;3.43;1.70;;;13.50;99.90;;;;;;5073568;28;20250;-66
2021/05/19 08:44:05;;;;;;;2.00;1.60;;;13.50;99.90;;;;;;5074156;28;20192;-66
2021/05/19 08:46:33;;;;;;;4.57;1.80;;;13.60;99.90;;;;;;5070772;28;20694;-65
2021/05/19 08:49:06;;;;;;;4.17;1.80;;;13.60;99.90;;;;;;5070480;28;20195;-65
2021/05/19 08:51:34;;;;;;;3.00;1.50;;;13.80;99.90;;;;;;5071415;28;20260;-65
2021/05/19 08:54:03;;;;;;;3.40;1.67;;;14.00;99.90;;;;;;5071647;28;20216;-65
2021/05/19 08:56:30;;;;;;;6.27;1.77;;;14.40;99.90;;;;;;5074551;28;20188;-66
2021/05/19 08:58:58;;;;;;;2.70;1.57;;;14.90;99.90;;;;;;5071157;28;20742;-66
2021/05/19 09:01:26;;;;;;;4.40;1.90;;;15.30;99.90;;;;;;5073106;28;20658;-66
2021/05/19 09:04:06;;;;;;;2.40;1.47;;;16.00;99.90;;;;;;5071988;28;20199;-66
2021/05/19 09:06:36;;;;;;;1.27;1.20;;;16.40;99.90;;;;;;5062423;28;20569;-66
2021/05/19 09:09:21;;;;;;;1.30;1.20;;;16.10;99.90;;;;;;5075835;28;20297;-66
2021/05/19 09:11:55;;;;;;;1.17;1.03;;;15.80;99.90;;;;;;5074115;28;20551;-66
2021/05/19 09:14:23;;;;;;;1.43;1.33;;;15.30;99.90;;;;;;5081226;28;20264;-65
2021/05/19 09:16:52;;;;;;;2.13;1.70;;;14.90;99.90;;;;;;5084657;28;20238;-66
2021/05/19 09:19:33;;;;;;;2.40;1.90;;;14.60;99.90;;;;;;5069935;28;20227;-66
2021/05/19 09:22:01;;;;;;;2.60;1.90;;;14.30;99.90;;;;;;5067680;28;20630;-66
2021/05/19 09:24:32;;;;;;;3.30;2.23;;;14.10;99.90;;;;;;5069447;28;20187;-66
2021/05/19 09:27:02;;;;;;;2.53;2.30;;;14.00;99.90;;;;;;5069394;28;20242;-66
2021/05/19 09:29:32;;;;;;;3.97;3.00;;;14.00;99.90;;;;;;5074514;28;20200;-66
2021/05/19 09:32:01;;;;;;;3.70;2.53;;;13.90;99.90;;;;;;5076268;28;20192;-66
2021/05/19 09:34:31;;;;;;;3.93;3.07;;;13.90;99.90;;;;;;5070235;28;20289;-66
2021/05/19 09:37:16;;;;;;;3.77;2.57;;;13.80;99.90;;;;;;5073624;28;20672;-66
2021/05/19 09:39:53;;;;;;;3.23;2.40;;;13.90;99.90;;;;;;5067992;28;20189;-66
2021/05/19 09:42:23;;;;;;;4.80;2.10;;;13.90;99.90;;;;;;5071797;28;20204;-66
2021/05/19 09:44:52;;;;;;;1.80;1.73;;;13.90;99.90;;;;;;5072983;28;20187;-66
2021/05/19 09:47:40;;;;;;;4.50;1.70;;;13.90;99.90;;;;;;5082642;28;20233;-66
2021/05/19 09:50:10;;;;;;;1.20;1.20;;;13.70;99.90;;;;;;5072570;28;20289;-66
2021/05/19 09:52:39;;;;;;;2.20;1.20;;;13.60;99.90;;;;;;5077187;28;20245;-66
2021/05/19 09:55:10;;;;;;;2.07;1.57;;;13.80;99.90;;;;;;5069155;28;20640;-65
2021/05/19 09:57:55;;;;;;;1.43;1.40;;;14.10;99.90;;;;;;5065200;28;20217;-66
2021/05/19 10:00:24;;;;;;;1.30;1.30;;;14.60;99.90;;;;;;5068526;28;20195;-66
2021/05/19 10:02:54;;;;;;;1.33;1.30;;;14.90;99.90;;;;;;5068600;28;20287;-66
2021/05/19 10:05:26;;;;;;;1.30;1.30;;;15.20;99.90;;;;;;5069483;28;20188;-66
2021/05/19 10:07:55;;;;;;;3.17;1.20;;;15.80;99.90;;;;;;5071694;28;20192;-66
2021/05/19 10:10:24;;;;;;;1.93;1.30;;;16.20;99.90;;;;;;5066606;28;20251;-66
2021/05/19 10:12:53;;;;;;;1.33;1.00;;;16.10;99.90;;;;;;5085911;28;20634;-66
2021/05/19 10:15:23;;;;;;;1.40;1.30;;;15.70;99.90;;;;;;5077980;28;20265;-66
2021/05/19 10:17:56;;;;;;;1.30;1.23;;;15.70;99.90;;;;;;5080118;28;20184;-67
2021/05/19 10:20:27;;;;;;;1.17;1.10;;;15.60;99.90;;;;;;5067681;28;20196;-66
2021/05/19 10:22:56;;;;;;;1.10;1.07;;;15.70;99.90;;;;;;5064291;28;20224;-66
2021/05/19 10:25:36;;;;;;;3.30;1.47;;;15.70;99.90;;;;;;5066625;28;20196;-66
2021/05/19 10:28:07;;;;;;;1.27;1.20;;;15.80;99.90;;;;;;5064880;28;20225;-66
2021/05/19 10:30:43;;;;;;;1.20;1.10;;;16.10;99.90;;;;;;5064605;28;20196;-67
2021/05/19 10:33:47;;;;;;;1.40;1.30;;;16.90;99.90;;;;;;5067753;28;20565;-66
2021/05/19 10:36:34;;;;;;;1.47;1.47;;;17.00;99.90;;;;;;5068698;28;20200;-66
2021/05/19 10:39:26;;;;;;;1.60;1.50;;;17.00;99.90;;;;;;5063919;28;20540;-67
2021/05/19 10:41:56;;;;;;;2.73;1.43;;;17.50;99.90;;;;;;5065040;28;20685;-67
2021/05/19 10:44:28;;;;;;;1.97;1.50;;;17.80;99.90;;;;;;5067491;28;20180;-67
2021/05/19 10:46:59;;;;;;;1.83;1.73;;;18.00;99.90;;;;;;5071638;28;20191;-67
2021/05/19 10:50:10;;;;;;;1.60;1.60;;;18.10;99.90;;;;;;5068607;28;20246;-67
2021/05/19 10:58:36;;;;;;;2.20;1.90;;;17.20;99.90;;;;;;5067444;28;20226;-66
2021/05/19 11:01:05;;;;;;;1.97;1.73;;;16.70;99.90;;;;;;5063095;28;20215;-67
2021/05/19 11:03:33;;;;;;;1.50;1.50;;;16.40;99.90;;;;;;5066664;28;20195;-67
2021/05/19 11:06:12;;;;;;;1.60;1.60;;;16.10;99.90;;;;;;5083711;28;20279;-66
2021/05/19 11:08:41;;;;;;;1.57;1.57;;;16.00;99.90;;;;;;5063470;28;20286;-66
2021/05/19 11:11:21;;;;;;;1.90;1.63;;;15.90;99.90;;;;;;5065407;28;20862;-67
2021/05/19 11:14:02;;;;;;;2.27;1.53;;;15.80;99.90;;;;;;5066859;28;20683;-66
2021/05/19 11:19:37;;;;;;;1.77;1.37;;;16.10;99.90;;;;;;5090665;28;20246;-66
2021/05/19 11:22:11;;;;;;;1.10;1.10;;;16.20;99.90;;;;;;5072955;28;20612;-67
2021/05/19 11:24:50;;;;;;;1.37;1.30;;;16.30;99.90;;;;;;5077592;28;20193;-67
2021/05/19 11:27:20;;;;;;;0.90;0.90;;;16.50;99.90;;;;;;5068909;28;20413;-66
2021/05/19 11:29:47;;;;;;;1.10;1.10;;;16.60;99.90;;;;;;5069033;28;20201;-66
2021/05/19 11:32:17;;;;;;;1.10;1.10;;;16.80;99.90;;;;;;5068017;28;20806;-66
2021/05/19 11:34:46;;;;;;;2.30;1.10;;;16.80;99.90;;;;;;5067910;28;20203;-67
2021/05/19 11:37:16;;;;;;;1.10;1.10;;;17.10;99.90;;;;;;5068338;28;20196;-67
2021/05/19 11:39:46;;;;;;;3.07;0.90;;;17.20;99.90;;;;;;5066509;28;20257;-67
2021/05/19 11:42:28;;;;;;;1.43;1.00;;;17.20;99.90;;;;;;5064872;28;20632;-67
2021/05/19 11:44:58;;;;;;;1.20;1.10;;;17.30;99.90;;;;;;5067886;28;20199;-66
2021/05/19 11:47:37;;;;;;;0.90;0.90;;;17.70;99.90;;;;;;5070477;28;20204;-66
2021/05/19 11:50:15;;;;;;;1.50;1.30;;;18.00;99.90;;;;;;5065766;28;20246;-67
2021/05/19 11:52:47;;;;;;;2.97;1.50;;;17.90;99.90;;;;;;5068070;28;20282;-67
2021/05/19 11:55:40;;;;;;;1.97;1.30;;;17.80;99.90;;;;;;5070886;28;20247;-66
2021/05/19 11:58:20;;;;;;;1.30;1.20;;;17.90;99.90;;;;;;5067941;28;20262;-67
2021/05/19 12:00:50;;;;;;;1.30;1.20;;;17.60;99.90;;;;;;5069170;28;20571;-67
2021/05/19 12:03:20;;;;;;;1.40;1.30;;;17.20;99.90;;;;;;5070083;28;20677;-67
2021/05/19 12:05:52;;;;;;;1.30;1.30;;;16.90;99.90;;;;;;5071209;28;20190;-67
2021/05/19 12:08:22;;;;;;;2.10;1.37;;;16.70;99.90;;;;;;5073249;28;20184;-67
2021/05/19 12:11:04;;;;;;;1.97;1.50;;;16.60;99.90;;;;;;5070827;28;20236;-67
2021/05/19 12:13:36;;;;;;;1.20;1.20;;;16.50;99.90;;;;;;5068936;28;20568;-66
2021/05/19 12:16:05;;;;;;;1.50;1.40;;;16.40;99.90;;;;;;5070806;28;20308;-67
2021/05/19 12:18:34;;;;;;;1.70;1.60;;;16.40;99.90;;;;;;5069412;28;20663;-67
2021/05/19 12:21:08;;;;;;;1.73;1.43;;;16.30;99.90;;;;;;5070842;28;20192;-67
2021/05/19 12:23:37;;;;;;;1.37;1.37;;;16.20;99.90;;;;;;5066969;28;20206;-66
2021/05/19 12:26:08;;;;;;;1.77;1.50;;;16.30;99.90;;;;;;5068606;28;20193;-67
2021/05/19 12:28:37;;;;;;;1.63;1.40;;;16.20;99.90;;;;;;5067264;28;20273;-67
2021/05/19 12:31:05;;;;;;;1.60;1.50;;;16.10;99.90;;;;;;5080609;28;20653;-66
2021/05/19 12:33:41;;;;;;;1.90;1.80;;;16.10;99.90;;;;;;5065545;28;20205;-66
2021/05/19 12:36:22;;;;;;;1.77;1.60;;;16.00;99.90;;;;;;5067058;28;20200;-67
2021/05/19 12:38:50;;;;;;;2.83;1.70;;;16.00;99.90;;;;;;5065985;28;21419;-66
2021/05/19 12:41:42;;;;;;;2.00;1.90;;;15.90;99.90;;;;;;5065261;28;20279;-66
2021/05/19 12:44:13;;;;;;;1.60;1.60;;;16.00;99.90;;;;;;5079173;28;20659;-66
2021/05/19 12:46:41;;;;;;;2.60;1.90;;;16.10;99.90;;;;;;5064193;28;20230;-67
2021/05/19 12:49:13;;;;;;;2.60;2.20;;;16.40;99.90;;;;;;5069891;28;20242;-67
2021/05/19 12:51:53;;;;;;;3.20;2.23;;;16.70;99.90;;;;;;5066832;28;20255;-67
2021/05/19 12:54:28;;;;;;;2.67;2.40;;;16.80;99.90;;;;;;5070480;28;20234;-66
2021/05/19 12:57:01;;;;;;;2.33;2.20;;;16.70;99.90;;;;;;5068616;28;20693;-67
2021/05/19 12:59:44;;;;;;;2.50;2.40;;;16.70;99.90;;;;;;5073046;28;20221;-66
2021/05/19 13:02:12;;;;;;;2.83;2.20;;;16.70;99.90;;;;;;5064566;28;20200;-67
2021/05/19 13:04:46;;;;;;;2.20;2.10;;;16.70;99.90;;;;;;5066189;28;20220;-67
2021/05/19 13:07:16;;;;;;;2.37;2.30;;;17.00;99.90;;;;;;5071493;28;20186;-66
2021/05/19 13:09:45;;;;;;;1.93;1.90;;;17.30;99.90;;;;;;5066496;28;20346;-66
2021/05/19 13:12:24;;;;;;;2.20;2.10;;;17.70;99.90;;;;;;5062673;28;20670;-66